Aviation Digital Data Service (ADDS)

Output produced by METARs form (1259 UTC 24 July 2014)
found at http://aviationweather.gov/adds/metars/
 
KLFT 241253Z 02004KT 9SM CLR 25/23 A3000 RMK AO2 SLP158 T02500233